sensor_id;sensor_type;location;lat;lon;timestamp;P1;durP1;ratioP1;P2;durP2;ratioP2
4971;SDS011;2501;51.214;6.768;2022-10-31T00:01:10;22.13;;;10.18;;
4971;SDS011;2501;51.214;6.768;2022-10-31T00:03:39;25.77;;;9.10;;
4971;SDS011;2501;51.214;6.768;2022-10-31T00:06:07;20.73;;;9.70;;
4971;SDS011;2501;51.214;6.768;2022-10-31T00:08:36;22.42;;;10.40;;
4971;SDS011;2501;51.214;6.768;2022-10-31T00:11:10;19.70;;;9.30;;
4971;SDS011;2501;51.214;6.768;2022-10-31T00:13:39;26.77;;;10.40;;
4971;SDS011;2501;51.214;6.768;2022-10-31T00:16:13;26.73;;;10.73;;
4971;SDS011;2501;51.214;6.768;2022-10-31T00:18:42;18.42;;;10.10;;
4971;SDS011;2501;51.214;6.768;2022-10-31T00:21:10;20.50;;;9.82;;
4971;SDS011;2501;51.214;6.768;2022-10-31T00:23:39;28.07;;;10.90;;
4971;SDS011;2501;51.214;6.768;2022-10-31T00:26:10;28.77;;;10.67;;
4971;SDS011;2501;51.214;6.768;2022-10-31T00:28:38;24.48;;;10.68;;
4971;SDS011;2501;51.214;6.768;2022-10-31T00:31:07;29.90;;;10.77;;
4971;SDS011;2501;51.214;6.768;2022-10-31T00:33:38;21.70;;;10.70;;
4971;SDS011;2501;51.214;6.768;2022-10-31T00:36:08;24.08;;;10.27;;
4971;SDS011;2501;51.214;6.768;2022-10-31T00:38:39;19.70;;;10.77;;
4971;SDS011;2501;51.214;6.768;2022-10-31T00:41:10;30.65;;;11.35;;
4971;SDS011;2501;51.214;6.768;2022-10-31T00:43:40;30.25;;;11.10;;
4971;SDS011;2501;51.214;6.768;2022-10-31T00:46:08;28.58;;;10.98;;
4971;SDS011;2501;51.214;6.768;2022-10-31T00:48:37;18.02;;;10.88;;
4971;SDS011;2501;51.214;6.768;2022-10-31T00:51:05;24.40;;;10.85;;
4971;SDS011;2501;51.214;6.768;2022-10-31T00:53:34;25.33;;;9.95;;
4971;SDS011;2501;51.214;6.768;2022-10-31T00:56:03;25.83;;;9.77;;
4971;SDS011;2501;51.214;6.768;2022-10-31T00:58:34;21.93;;;10.37;;
4971;SDS011;2501;51.214;6.768;2022-10-31T01:01:03;18.50;;;10.32;;
4971;SDS011;2501;51.214;6.768;2022-10-31T01:03:32;18.13;;;10.07;;
4971;SDS011;2501;51.214;6.768;2022-10-31T01:06:04;18.92;;;10.00;;
4971;SDS011;2501;51.214;6.768;2022-10-31T01:08:35;20.83;;;10.00;;
4971;SDS011;2501;51.214;6.768;2022-10-31T01:11:05;19.40;;;9.50;;
4971;SDS011;2501;51.214;6.768;2022-10-31T01:13:38;20.08;;;9.52;;
4971;SDS011;2501;51.214;6.768;2022-10-31T01:16:07;17.33;;;9.40;;
4971;SDS011;2501;51.214;6.768;2022-10-31T01:18:38;22.00;;;9.60;;
4971;SDS011;2501;51.214;6.768;2022-10-31T01:21:08;20.10;;;10.00;;
4971;SDS011;2501;51.214;6.768;2022-10-31T01:23:38;15.70;;;9.40;;
4971;SDS011;2501;51.214;6.768;2022-10-31T01:26:08;19.58;;;9.40;;
4971;SDS011;2501;51.214;6.768;2022-10-31T01:28:43;21.67;;;9.15;;
4971;SDS011;2501;51.214;6.768;2022-10-31T01:31:13;20.00;;;9.40;;
4971;SDS011;2501;51.214;6.768;2022-10-31T01:33:43;23.10;;;9.93;;
4971;SDS011;2501;51.214;6.768;2022-10-31T01:36:16;21.08;;;9.00;;
4971;SDS011;2501;51.214;6.768;2022-10-31T01:38:48;17.63;;;9.75;;
4971;SDS011;2501;51.214;6.768;2022-10-31T01:41:17;22.27;;;9.00;;
4971;SDS011;2501;51.214;6.768;2022-10-31T01:43:53;25.42;;;8.95;;
4971;SDS011;2501;51.214;6.768;2022-10-31T01:46:23;17.67;;;9.27;;
4971;SDS011;2501;51.214;6.768;2022-10-31T01:48:54;23.92;;;9.50;;
4971;SDS011;2501;51.214;6.768;2022-10-31T01:51:27;15.77;;;8.70;;
4971;SDS011;2501;51.214;6.768;2022-10-31T01:54:00;21.13;;;9.25;;
4971;SDS011;2501;51.214;6.768;2022-10-31T01:56:32;20.00;;;8.85;;
4971;SDS011;2501;51.214;6.768;2022-10-31T01:59:08;22.23;;;9.30;;
4971;SDS011;2501;51.214;6.768;2022-10-31T02:01:40;24.30;;;9.48;;
4971;SDS011;2501;51.214;6.768;2022-10-31T02:04:08;16.88;;;9.02;;
4971;SDS011;2501;51.214;6.768;2022-10-31T02:06:37;20.52;;;9.23;;
4971;SDS011;2501;51.214;6.768;2022-10-31T02:09:10;18.60;;;8.93;;
4971;SDS011;2501;51.214;6.768;2022-10-31T02:11:41;19.87;;;8.90;;
4971;SDS011;2501;51.214;6.768;2022-10-31T02:14:14;17.65;;;8.43;;
4971;SDS011;2501;51.214;6.768;2022-10-31T02:16:43;19.00;;;9.00;;
4971;SDS011;2501;51.214;6.768;2022-10-31T02:19:12;25.70;;;9.27;;
4971;SDS011;2501;51.214;6.768;2022-10-31T02:21:49;21.30;;;9.68;;
4971;SDS011;2501;51.214;6.768;2022-10-31T02:24:29;17.35;;;9.05;;
4971;SDS011;2501;51.214;6.768;2022-10-31T02:27:21;20.38;;;9.13;;
4971;SDS011;2501;51.214;6.768;2022-10-31T02:30:07;19.00;;;9.50;;
4971;SDS011;2501;51.214;6.768;2022-10-31T02:32:46;22.10;;;9.93;;
4971;SDS011;2501;51.214;6.768;2022-10-31T02:35:39;18.75;;;9.02;;
4971;SDS011;2501;51.214;6.768;2022-10-31T02:38:19;20.83;;;9.75;;
4971;SDS011;2501;51.214;6.768;2022-10-31T02:40:57;22.15;;;8.93;;
4971;SDS011;2501;51.214;6.768;2022-10-31T02:43:34;18.63;;;9.50;;
4971;SDS011;2501;51.214;6.768;2022-10-31T02:46:07;20.85;;;9.07;;
4971;SDS011;2501;51.214;6.768;2022-10-31T02:48:44;17.73;;;8.73;;
4971;SDS011;2501;51.214;6.768;2022-10-31T02:51:15;17.60;;;8.85;;
4971;SDS011;2501;51.214;6.768;2022-10-31T02:53:45;17.33;;;8.73;;
4971;SDS011;2501;51.214;6.768;2022-10-31T02:56:14;23.70;;;9.13;;
4971;SDS011;2501;51.214;6.768;2022-10-31T02:58:46;19.08;;;9.40;;
4971;SDS011;2501;51.214;6.768;2022-10-31T03:01:24;20.25;;;8.95;;
4971;SDS011;2501;51.214;6.768;2022-10-31T03:04:24;17.67;;;8.60;;
4971;SDS011;2501;51.214;6.768;2022-10-31T03:07:00;18.35;;;8.60;;
4971;SDS011;2501;51.214;6.768;2022-10-31T03:09:37;19.38;;;8.57;;
4971;SDS011;2501;51.214;6.768;2022-10-31T03:12:13;21.90;;;8.48;;
4971;SDS011;2501;51.214;6.768;2022-10-31T03:14:48;21.08;;;8.18;;
4971;SDS011;2501;51.214;6.768;2022-10-31T03:17:22;20.85;;;8.40;;
4971;SDS011;2501;51.214;6.768;2022-10-31T03:20:00;21.95;;;9.68;;
4971;SDS011;2501;51.214;6.768;2022-10-31T03:22:31;24.45;;;9.27;;
4971;SDS011;2501;51.214;6.768;2022-10-31T03:25:01;22.05;;;8.70;;
4971;SDS011;2501;51.214;6.768;2022-10-31T03:27:32;27.60;;;8.90;;
4971;SDS011;2501;51.214;6.768;2022-10-31T03:30:03;16.23;;;9.23;;
4971;SDS011;2501;51.214;6.768;2022-10-31T03:32:34;21.90;;;8.73;;
4971;SDS011;2501;51.214;6.768;2022-10-31T03:35:10;22.90;;;9.35;;
4971;SDS011;2501;51.214;6.768;2022-10-31T03:37:43;20.23;;;8.82;;
4971;SDS011;2501;51.214;6.768;2022-10-31T03:40:13;23.40;;;9.47;;
4971;SDS011;2501;51.214;6.768;2022-10-31T03:42:46;18.52;;;8.85;;
4971;SDS011;2501;51.214;6.768;2022-10-31T03:45:21;17.38;;;8.27;;
4971;SDS011;2501;51.214;6.768;2022-10-31T03:47:52;19.95;;;8.65;;
4971;SDS011;2501;51.214;6.768;2022-10-31T03:50:25;16.63;;;9.20;;
4971;SDS011;2501;51.214;6.768;2022-10-31T03:53:00;20.95;;;9.10;;
4971;SDS011;2501;51.214;6.768;2022-10-31T03:55:35;18.57;;;9.10;;
4971;SDS011;2501;51.214;6.768;2022-10-31T03:58:08;22.75;;;9.35;;
4971;SDS011;2501;51.214;6.768;2022-10-31T04:00:40;20.65;;;8.65;;
4971;SDS011;2501;51.214;6.768;2022-10-31T04:03:12;21.77;;;8.70;;
4971;SDS011;2501;51.214;6.768;2022-10-31T04:05:47;19.92;;;9.50;;
4971;SDS011;2501;51.214;6.768;2022-10-31T04:08:20;20.40;;;9.70;;
4971;SDS011;2501;51.214;6.768;2022-10-31T04:10:57;13.80;;;8.60;;
4971;SDS011;2501;51.214;6.768;2022-10-31T04:13:29;23.38;;;9.00;;
4971;SDS011;2501;51.214;6.768;2022-10-31T04:16:02;20.58;;;9.18;;
4971;SDS011;2501;51.214;6.768;2022-10-31T04:18:31;21.15;;;8.98;;
4971;SDS011;2501;51.214;6.768;2022-10-31T04:21:03;19.95;;;9.13;;
4971;SDS011;2501;51.214;6.768;2022-10-31T04:23:33;24.45;;;9.57;;
4971;SDS011;2501;51.214;6.768;2022-10-31T04:26:02;19.35;;;9.50;;
4971;SDS011;2501;51.214;6.768;2022-10-31T04:28:31;14.50;;;8.50;;
4971;SDS011;2501;51.214;6.768;2022-10-31T04:31:00;18.63;;;9.30;;
4971;SDS011;2501;51.214;6.768;2022-10-31T04:33:28;19.13;;;9.13;;
4971;SDS011;2501;51.214;6.768;2022-10-31T04:35:57;16.70;;;9.40;;
4971;SDS011;2501;51.214;6.768;2022-10-31T04:38:28;22.65;;;9.43;;
4971;SDS011;2501;51.214;6.768;2022-10-31T04:40:56;22.45;;;9.93;;
4971;SDS011;2501;51.214;6.768;2022-10-31T04:43:24;18.90;;;10.07;;
4971;SDS011;2501;51.214;6.768;2022-10-31T04:45:53;26.33;;;9.90;;
4971;SDS011;2501;51.214;6.768;2022-10-31T04:48:21;18.63;;;9.50;;
4971;SDS011;2501;51.214;6.768;2022-10-31T04:50:50;20.70;;;9.48;;
4971;SDS011;2501;51.214;6.768;2022-10-31T04:53:18;20.95;;;10.13;;
4971;SDS011;2501;51.214;6.768;2022-10-31T04:55:49;17.75;;;9.75;;
4971;SDS011;2501;51.214;6.768;2022-10-31T04:58:17;21.90;;;9.35;;
4971;SDS011;2501;51.214;6.768;2022-10-31T05:00:46;21.23;;;10.05;;
4971;SDS011;2501;51.214;6.768;2022-10-31T05:03:14;15.15;;;8.70;;
4971;SDS011;2501;51.214;6.768;2022-10-31T05:05:42;15.60;;;9.68;;
4971;SDS011;2501;51.214;6.768;2022-10-31T05:08:11;19.27;;;9.30;;
4971;SDS011;2501;51.214;6.768;2022-10-31T05:10:39;21.58;;;9.80;;
4971;SDS011;2501;51.214;6.768;2022-10-31T05:13:10;20.92;;;10.23;;
4971;SDS011;2501;51.214;6.768;2022-10-31T05:15:39;21.08;;;9.63;;
4971;SDS011;2501;51.214;6.768;2022-10-31T05:18:08;15.63;;;9.77;;
4971;SDS011;2501;51.214;6.768;2022-10-31T05:20:36;25.27;;;10.25;;
4971;SDS011;2501;51.214;6.768;2022-10-31T05:23:05;17.20;;;9.57;;
4971;SDS011;2501;51.214;6.768;2022-10-31T05:25:33;21.48;;;10.20;;
4971;SDS011;2501;51.214;6.768;2022-10-31T05:28:01;22.77;;;10.18;;
4971;SDS011;2501;51.214;6.768;2022-10-31T05:30:33;22.83;;;9.75;;
4971;SDS011;2501;51.214;6.768;2022-10-31T05:33:02;15.10;;;8.75;;
4971;SDS011;2501;51.214;6.768;2022-10-31T05:35:31;27.87;;;9.57;;
4971;SDS011;2501;51.214;6.768;2022-10-31T05:38:00;23.83;;;9.90;;
4971;SDS011;2501;51.214;6.768;2022-10-31T05:40:28;22.33;;;9.68;;
4971;SDS011;2501;51.214;6.768;2022-10-31T05:42:57;18.80;;;9.80;;
4971;SDS011;2501;51.214;6.768;2022-10-31T05:45:26;28.13;;;10.40;;
4971;SDS011;2501;51.214;6.768;2022-10-31T05:47:57;28.30;;;9.80;;
4971;SDS011;2501;51.214;6.768;2022-10-31T05:50:27;22.40;;;9.90;;
4971;SDS011;2501;51.214;6.768;2022-10-31T05:52:57;18.75;;;9.82;;
4971;SDS011;2501;51.214;6.768;2022-10-31T05:55:27;23.20;;;9.03;;
4971;SDS011;2501;51.214;6.768;2022-10-31T05:57:56;17.70;;;9.40;;
4971;SDS011;2501;51.214;6.768;2022-10-31T06:00:25;19.90;;;9.70;;
4971;SDS011;2501;51.214;6.768;2022-10-31T06:03:00;24.95;;;10.02;;
4971;SDS011;2501;51.214;6.768;2022-10-31T06:05:30;24.73;;;10.20;;
4971;SDS011;2501;51.214;6.768;2022-10-31T06:08:00;19.45;;;11.05;;
4971;SDS011;2501;51.214;6.768;2022-10-31T06:10:28;21.80;;;9.30;;
4971;SDS011;2501;51.214;6.768;2022-10-31T06:12:57;20.87;;;10.40;;
4971;SDS011;2501;51.214;6.768;2022-10-31T06:15:25;19.92;;;10.32;;
4971;SDS011;2501;51.214;6.768;2022-10-31T06:18:00;28.05;;;12.55;;
4971;SDS011;2501;51.214;6.768;2022-10-31T06:20:30;21.02;;;10.80;;
4971;SDS011;2501;51.214;6.768;2022-10-31T06:22:59;20.52;;;9.68;;
4971;SDS011;2501;51.214;6.768;2022-10-31T06:25:28;26.98;;;10.90;;
4971;SDS011;2501;51.214;6.768;2022-10-31T06:27:56;22.02;;;10.40;;
4971;SDS011;2501;51.214;6.768;2022-10-31T06:30:25;56.08;;;24.35;;
4971;SDS011;2501;51.214;6.768;2022-10-31T06:32:53;23.70;;;10.00;;
4971;SDS011;2501;51.214;6.768;2022-10-31T06:35:24;33.83;;;10.30;;
4971;SDS011;2501;51.214;6.768;2022-10-31T06:37:53;20.17;;;10.00;;
4971;SDS011;2501;51.214;6.768;2022-10-31T06:40:22;24.20;;;10.50;;
4971;SDS011;2501;51.214;6.768;2022-10-31T06:42:57;26.67;;;9.70;;
4971;SDS011;2501;51.214;6.768;2022-10-31T06:45:26;28.25;;;11.13;;
4971;SDS011;2501;51.214;6.768;2022-10-31T06:47:54;24.55;;;10.25;;
4971;SDS011;2501;51.214;6.768;2022-10-31T06:50:26;25.60;;;10.52;;
4971;SDS011;2501;51.214;6.768;2022-10-31T06:52:55;24.60;;;10.70;;
4971;SDS011;2501;51.214;6.768;2022-10-31T06:55:25;35.50;;;16.27;;
4971;SDS011;2501;51.214;6.768;2022-10-31T06:57:55;48.43;;;21.13;;
4971;SDS011;2501;51.214;6.768;2022-10-31T07:00:26;20.67;;;10.75;;
4971;SDS011;2501;51.214;6.768;2022-10-31T07:02:56;21.65;;;11.02;;
4971;SDS011;2501;51.214;6.768;2022-10-31T07:05:27;22.45;;;10.93;;
4971;SDS011;2501;51.214;6.768;2022-10-31T07:07:57;29.88;;;11.77;;
4971;SDS011;2501;51.214;6.768;2022-10-31T07:10:27;24.80;;;11.02;;
4971;SDS011;2501;51.214;6.768;2022-10-31T07:12:57;25.75;;;11.23;;
4971;SDS011;2501;51.214;6.768;2022-10-31T07:15:28;26.13;;;11.90;;
4971;SDS011;2501;51.214;6.768;2022-10-31T07:17:59;25.38;;;12.70;;
4971;SDS011;2501;51.214;6.768;2022-10-31T07:20:30;32.97;;;11.90;;
4971;SDS011;2501;51.214;6.768;2022-10-31T07:22:59;23.23;;;11.40;;
4971;SDS011;2501;51.214;6.768;2022-10-31T07:25:28;25.00;;;11.40;;
4971;SDS011;2501;51.214;6.768;2022-10-31T07:27:58;56.45;;;26.25;;
4971;SDS011;2501;51.214;6.768;2022-10-31T07:30:26;30.53;;;14.40;;
4971;SDS011;2501;51.214;6.768;2022-10-31T07:32:55;29.67;;;14.65;;
4971;SDS011;2501;51.214;6.768;2022-10-31T07:35:24;31.63;;;14.13;;
4971;SDS011;2501;51.214;6.768;2022-10-31T07:37:57;31.55;;;14.10;;
4971;SDS011;2501;51.214;6.768;2022-10-31T07:40:26;32.17;;;13.07;;
4971;SDS011;2501;51.214;6.768;2022-10-31T07:42:54;29.90;;;14.32;;
4971;SDS011;2501;51.214;6.768;2022-10-31T07:45:22;36.28;;;13.73;;
4971;SDS011;2501;51.214;6.768;2022-10-31T07:47:51;31.92;;;14.60;;
4971;SDS011;2501;51.214;6.768;2022-10-31T07:50:21;22.83;;;13.20;;
4971;SDS011;2501;51.214;6.768;2022-10-31T07:53:00;27.60;;;12.48;;
4971;SDS011;2501;51.214;6.768;2022-10-31T07:55:30;28.20;;;12.50;;
4971;SDS011;2501;51.214;6.768;2022-10-31T07:57:59;31.83;;;14.05;;
4971;SDS011;2501;51.214;6.768;2022-10-31T08:00:28;28.58;;;12.05;;
4971;SDS011;2501;51.214;6.768;2022-10-31T08:02:58;28.30;;;12.52;;
4971;SDS011;2501;51.214;6.768;2022-10-31T08:05:28;28.65;;;12.68;;
4971;SDS011;2501;51.214;6.768;2022-10-31T08:07:56;21.77;;;12.80;;
4971;SDS011;2501;51.214;6.768;2022-10-31T08:10:27;31.10;;;14.32;;
4971;SDS011;2501;51.214;6.768;2022-10-31T08:12:56;26.40;;;12.65;;
4971;SDS011;2501;51.214;6.768;2022-10-31T08:15:25;27.58;;;12.65;;
4971;SDS011;2501;51.214;6.768;2022-10-31T08:17:54;20.95;;;12.23;;
4971;SDS011;2501;51.214;6.768;2022-10-31T08:20:23;27.45;;;13.13;;
4971;SDS011;2501;51.214;6.768;2022-10-31T08:22:52;25.00;;;12.93;;
4971;SDS011;2501;51.214;6.768;2022-10-31T08:25:25;31.33;;;12.20;;
4971;SDS011;2501;51.214;6.768;2022-10-31T08:27:54;27.73;;;14.05;;
4971;SDS011;2501;51.214;6.768;2022-10-31T08:30:25;25.27;;;12.95;;
4971;SDS011;2501;51.214;6.768;2022-10-31T08:32:58;21.90;;;11.93;;
4971;SDS011;2501;51.214;6.768;2022-10-31T08:35:28;30.95;;;12.10;;
4971;SDS011;2501;51.214;6.768;2022-10-31T08:37:56;27.67;;;12.18;;
4971;SDS011;2501;51.214;6.768;2022-10-31T08:40:29;23.98;;;12.35;;
4971;SDS011;2501;51.214;6.768;2022-10-31T08:43:00;21.37;;;10.60;;
4971;SDS011;2501;51.214;6.768;2022-10-31T08:45:31;21.25;;;11.00;;
4971;SDS011;2501;51.214;6.768;2022-10-31T08:48:01;26.60;;;10.90;;
4971;SDS011;2501;51.214;6.768;2022-10-31T08:50:32;18.95;;;10.30;;
4971;SDS011;2501;51.214;6.768;2022-10-31T08:53:04;28.93;;;12.83;;
4971;SDS011;2501;51.214;6.768;2022-10-31T08:55:36;43.90;;;19.05;;
4971;SDS011;2501;51.214;6.768;2022-10-31T08:58:07;24.27;;;10.50;;
4971;SDS011;2501;51.214;6.768;2022-10-31T09:00:38;28.05;;;9.95;;
4971;SDS011;2501;51.214;6.768;2022-10-31T09:03:08;29.08;;;10.85;;
4971;SDS011;2501;51.214;6.768;2022-10-31T09:05:39;27.08;;;11.18;;
4971;SDS011;2501;51.214;6.768;2022-10-31T09:08:07;29.33;;;12.25;;
4971;SDS011;2501;51.214;6.768;2022-10-31T09:10:40;29.50;;;11.95;;
4971;SDS011;2501;51.214;6.768;2022-10-31T09:13:10;36.85;;;12.50;;
4971;SDS011;2501;51.214;6.768;2022-10-31T09:15:41;22.83;;;10.80;;
4971;SDS011;2501;51.214;6.768;2022-10-31T09:18:12;26.73;;;11.13;;
4971;SDS011;2501;51.214;6.768;2022-10-31T09:20:42;22.40;;;9.90;;
4971;SDS011;2501;51.214;6.768;2022-10-31T09:23:12;29.50;;;10.77;;
4971;SDS011;2501;51.214;6.768;2022-10-31T09:25:44;24.13;;;10.13;;
4971;SDS011;2501;51.214;6.768;2022-10-31T09:28:14;23.15;;;13.05;;
4971;SDS011;2501;51.214;6.768;2022-10-31T09:30:45;21.33;;;10.70;;
4971;SDS011;2501;51.214;6.768;2022-10-31T09:33:15;22.58;;;11.20;;
4971;SDS011;2501;51.214;6.768;2022-10-31T09:35:44;24.92;;;10.35;;
4971;SDS011;2501;51.214;6.768;2022-10-31T09:38:17;22.27;;;9.80;;
4971;SDS011;2501;51.214;6.768;2022-10-31T09:40:52;18.40;;;10.38;;
4971;SDS011;2501;51.214;6.768;2022-10-31T09:43:30;29.92;;;9.75;;
4971;SDS011;2501;51.214;6.768;2022-10-31T09:46:08;29.30;;;10.60;;
4971;SDS011;2501;51.214;6.768;2022-10-31T09:48:45;22.58;;;10.27;;
4971;SDS011;2501;51.214;6.768;2022-10-31T09:51:25;29.85;;;12.57;;
4971;SDS011;2501;51.214;6.768;2022-10-31T09:53:59;23.75;;;11.00;;
4971;SDS011;2501;51.214;6.768;2022-10-31T09:56:32;27.20;;;13.20;;
4971;SDS011;2501;51.214;6.768;2022-10-31T09:59:02;28.33;;;10.30;;
4971;SDS011;2501;51.214;6.768;2022-10-31T10:01:34;29.00;;;11.30;;
4971;SDS011;2501;51.214;6.768;2022-10-31T10:04:16;23.80;;;11.13;;
4971;SDS011;2501;51.214;6.768;2022-10-31T10:06:54;23.23;;;11.70;;
4971;SDS011;2501;51.214;6.768;2022-10-31T10:09:24;29.52;;;12.02;;
4971;SDS011;2501;51.214;6.768;2022-10-31T10:11:58;28.40;;;12.23;;
4971;SDS011;2501;51.214;6.768;2022-10-31T10:14:41;27.33;;;12.10;;
4971;SDS011;2501;51.214;6.768;2022-10-31T10:17:22;24.57;;;10.90;;
4971;SDS011;2501;51.214;6.768;2022-10-31T10:22:56;27.47;;;10.80;;
4971;SDS011;2501;51.214;6.768;2022-10-31T10:25:38;26.48;;;11.52;;
4971;SDS011;2501;51.214;6.768;2022-10-31T10:28:14;26.77;;;11.63;;
4971;SDS011;2501;51.214;6.768;2022-10-31T10:30:49;23.58;;;10.85;;
4971;SDS011;2501;51.214;6.768;2022-10-31T10:33:23;24.63;;;11.13;;
4971;SDS011;2501;51.214;6.768;2022-10-31T10:35:57;21.55;;;10.60;;
4971;SDS011;2501;51.214;6.768;2022-10-31T10:38:28;21.70;;;11.13;;
4971;SDS011;2501;51.214;6.768;2022-10-31T10:41:04;24.23;;;10.43;;
4971;SDS011;2501;51.214;6.768;2022-10-31T10:43:40;26.55;;;10.63;;
4971;SDS011;2501;51.214;6.768;2022-10-31T10:46:14;24.98;;;9.65;;
4971;SDS011;2501;51.214;6.768;2022-10-31T10:48:58;19.27;;;10.10;;
4971;SDS011;2501;51.214;6.768;2022-10-31T10:51:33;22.17;;;8.90;;
4971;SDS011;2501;51.214;6.768;2022-10-31T10:54:10;18.90;;;9.75;;
4971;SDS011;2501;51.214;6.768;2022-10-31T10:57:07;30.03;;;10.27;;
4971;SDS011;2501;51.214;6.768;2022-10-31T10:59:49;16.52;;;8.70;;
4971;SDS011;2501;51.214;6.768;2022-10-31T11:02:20;22.45;;;9.43;;
4971;SDS011;2501;51.214;6.768;2022-10-31T11:04:51;20.52;;;9.57;;
4971;SDS011;2501;51.214;6.768;2022-10-31T11:07:21;21.45;;;9.55;;
4971;SDS011;2501;51.214;6.768;2022-10-31T11:09:50;21.35;;;8.95;;
4971;SDS011;2501;51.214;6.768;2022-10-31T11:12:20;20.42;;;9.40;;
4971;SDS011;2501;51.214;6.768;2022-10-31T11:14:55;15.80;;;8.60;;
4971;SDS011;2501;51.214;6.768;2022-10-31T11:17:29;27.73;;;9.07;;
4971;SDS011;2501;51.214;6.768;2022-10-31T11:20:00;15.88;;;9.00;;
4971;SDS011;2501;51.214;6.768;2022-10-31T11:22:31;19.20;;;8.90;;
4971;SDS011;2501;51.214;6.768;2022-10-31T11:25:00;27.37;;;8.30;;
4971;SDS011;2501;51.214;6.768;2022-10-31T11:27:28;27.30;;;9.00;;
4971;SDS011;2501;51.214;6.768;2022-10-31T11:30:06;27.27;;;9.70;;
4971;SDS011;2501;51.214;6.768;2022-10-31T11:32:37;22.67;;;8.10;;
4971;SDS011;2501;51.214;6.768;2022-10-31T11:35:14;19.63;;;8.37;;
4971;SDS011;2501;51.214;6.768;2022-10-31T11:37:45;17.90;;;8.90;;
4971;SDS011;2501;51.214;6.768;2022-10-31T11:40:16;14.40;;;8.50;;
4971;SDS011;2501;51.214;6.768;2022-10-31T11:42:48;16.92;;;8.45;;
4971;SDS011;2501;51.214;6.768;2022-10-31T11:45:29;19.42;;;8.32;;
4971;SDS011;2501;51.214;6.768;2022-10-31T11:48:02;19.40;;;8.83;;
4971;SDS011;2501;51.214;6.768;2022-10-31T11:50:47;19.20;;;8.55;;
4971;SDS011;2501;51.214;6.768;2022-10-31T11:53:18;19.35;;;8.60;;
4971;SDS011;2501;51.214;6.768;2022-10-31T11:55:59;21.85;;;8.63;;
4971;SDS011;2501;51.214;6.768;2022-10-31T11:58:31;22.70;;;8.27;;
4971;SDS011;2501;51.214;6.768;2022-10-31T12:01:02;18.88;;;8.10;;
4971;SDS011;2501;51.214;6.768;2022-10-31T12:03:38;20.83;;;7.88;;
4971;SDS011;2501;51.214;6.768;2022-10-31T12:06:14;24.58;;;9.40;;
4971;SDS011;2501;51.214;6.768;2022-10-31T12:08:47;16.20;;;8.05;;
4971;SDS011;2501;51.214;6.768;2022-10-31T12:11:21;20.38;;;7.60;;
4971;SDS011;2501;51.214;6.768;2022-10-31T12:14:13;23.58;;;7.80;;
4971;SDS011;2501;51.214;6.768;2022-10-31T12:16:53;21.45;;;8.82;;
4971;SDS011;2501;51.214;6.768;2022-10-31T12:19:31;14.10;;;8.07;;
4971;SDS011;2501;51.214;6.768;2022-10-31T12:22:05;16.20;;;6.90;;
4971;SDS011;2501;51.214;6.768;2022-10-31T12:24:45;22.08;;;6.80;;
4971;SDS011;2501;51.214;6.768;2022-10-31T12:27:28;19.92;;;6.88;;
4971;SDS011;2501;51.214;6.768;2022-10-31T12:30:13;15.55;;;6.40;;
4971;SDS011;2501;51.214;6.768;2022-10-31T12:35:51;16.70;;;6.05;;
4971;SDS011;2501;51.214;6.768;2022-10-31T12:38:36;16.10;;;6.60;;
4971;SDS011;2501;51.214;6.768;2022-10-31T12:41:28;10.95;;;5.10;;
4971;SDS011;2501;51.214;6.768;2022-10-31T12:44:11;10.88;;;4.90;;
4971;SDS011;2501;51.214;6.768;2022-10-31T12:46:59;16.63;;;5.22;;
4971;SDS011;2501;51.214;6.768;2022-10-31T12:49:42;8.18;;;5.10;;
4971;SDS011;2501;51.214;6.768;2022-10-31T12:52:19;13.55;;;5.20;;
4971;SDS011;2501;51.214;6.768;2022-10-31T12:55:09;15.45;;;5.00;;
4971;SDS011;2501;51.214;6.768;2022-10-31T12:57:46;14.75;;;5.60;;
4971;SDS011;2501;51.214;6.768;2022-10-31T13:00:19;8.40;;;4.57;;
4971;SDS011;2501;51.214;6.768;2022-10-31T13:02:48;11.68;;;4.90;;
4971;SDS011;2501;51.214;6.768;2022-10-31T13:05:26;13.60;;;4.40;;
4971;SDS011;2501;51.214;6.768;2022-10-31T13:07:59;58.42;;;27.23;;
4971;SDS011;2501;51.214;6.768;2022-10-31T13:10:34;12.73;;;5.30;;
4971;SDS011;2501;51.214;6.768;2022-10-31T13:13:10;16.92;;;5.20;;
4971;SDS011;2501;51.214;6.768;2022-10-31T13:15:46;15.77;;;5.35;;
4971;SDS011;2501;51.214;6.768;2022-10-31T13:18:21;8.30;;;5.13;;
4971;SDS011;2501;51.214;6.768;2022-10-31T13:20:58;12.48;;;4.90;;
4971;SDS011;2501;51.214;6.768;2022-10-31T13:23:30;17.35;;;7.10;;
4971;SDS011;2501;51.214;6.768;2022-10-31T13:26:03;18.83;;;8.30;;
4971;SDS011;2501;51.214;6.768;2022-10-31T13:28:40;11.90;;;5.50;;
4971;SDS011;2501;51.214;6.768;2022-10-31T13:31:14;22.70;;;8.20;;
4971;SDS011;2501;51.214;6.768;2022-10-31T13:33:44;19.20;;;6.30;;
4971;SDS011;2501;51.214;6.768;2022-10-31T13:36:21;15.00;;;4.70;;
4971;SDS011;2501;51.214;6.768;2022-10-31T13:38:58;11.13;;;4.75;;
4971;SDS011;2501;51.214;6.768;2022-10-31T13:41:36;11.55;;;5.18;;
4971;SDS011;2501;51.214;6.768;2022-10-31T13:44:13;14.57;;;4.93;;
4971;SDS011;2501;51.214;6.768;2022-10-31T13:46:45;12.80;;;4.72;;
4971;SDS011;2501;51.214;6.768;2022-10-31T13:49:23;18.10;;;4.70;;
4971;SDS011;2501;51.214;6.768;2022-10-31T13:54:45;21.50;;;5.13;;
4971;SDS011;2501;51.214;6.768;2022-10-31T13:57:22;19.73;;;4.70;;
4971;SDS011;2501;51.214;6.768;2022-10-31T13:59:58;13.05;;;4.90;;
4971;SDS011;2501;51.214;6.768;2022-10-31T14:02:29;16.20;;;5.80;;
4971;SDS011;2501;51.214;6.768;2022-10-31T14:05:00;12.82;;;4.88;;
4971;SDS011;2501;51.214;6.768;2022-10-31T14:07:33;18.05;;;5.13;;
4971;SDS011;2501;51.214;6.768;2022-10-31T14:10:02;9.77;;;5.30;;
4971;SDS011;2501;51.214;6.768;2022-10-31T14:12:34;9.73;;;4.40;;
4971;SDS011;2501;51.214;6.768;2022-10-31T14:15:12;9.43;;;4.67;;
4971;SDS011;2501;51.214;6.768;2022-10-31T14:17:45;11.63;;;4.85;;
4971;SDS011;2501;51.214;6.768;2022-10-31T14:20:24;12.73;;;6.13;;
4971;SDS011;2501;51.214;6.768;2022-10-31T14:26:16;12.95;;;4.50;;
4971;SDS011;2501;51.214;6.768;2022-10-31T14:28:58;11.68;;;4.30;;
4971;SDS011;2501;51.214;6.768;2022-10-31T14:31:33;12.93;;;4.80;;
4971;SDS011;2501;51.214;6.768;2022-10-31T14:34:18;17.95;;;4.22;;
4971;SDS011;2501;51.214;6.768;2022-10-31T14:36:56;17.75;;;4.90;;
4971;SDS011;2501;51.214;6.768;2022-10-31T14:39:37;14.95;;;5.57;;
4971;SDS011;2501;51.214;6.768;2022-10-31T14:42:18;16.67;;;5.25;;
4971;SDS011;2501;51.214;6.768;2022-10-31T14:47:52;14.32;;;4.75;;
4971;SDS011;2501;51.214;6.768;2022-10-31T14:50:34;11.57;;;3.97;;
4971;SDS011;2501;51.214;6.768;2022-10-31T14:53:13;12.82;;;4.80;;
4971;SDS011;2501;51.214;6.768;2022-10-31T14:55:51;11.68;;;4.50;;
4971;SDS011;2501;51.214;6.768;2022-10-31T14:58:22;8.43;;;4.55;;
4971;SDS011;2501;51.214;6.768;2022-10-31T15:00:54;11.25;;;3.88;;
4971;SDS011;2501;51.214;6.768;2022-10-31T15:03:26;20.60;;;4.43;;
4971;SDS011;2501;51.214;6.768;2022-10-31T15:06:00;13.75;;;4.57;;
4971;SDS011;2501;51.214;6.768;2022-10-31T15:08:33;12.15;;;4.35;;
4971;SDS011;2501;51.214;6.768;2022-10-31T15:11:11;8.85;;;4.30;;
4971;SDS011;2501;51.214;6.768;2022-10-31T15:13:43;10.88;;;4.65;;
4971;SDS011;2501;51.214;6.768;2022-10-31T15:16:13;16.13;;;5.72;;
4971;SDS011;2501;51.214;6.768;2022-10-31T15:18:47;15.30;;;5.00;;
4971;SDS011;2501;51.214;6.768;2022-10-31T15:21:20;10.60;;;4.72;;
4971;SDS011;2501;51.214;6.768;2022-10-31T15:23:51;9.18;;;3.83;;
4971;SDS011;2501;51.214;6.768;2022-10-31T15:26:25;9.48;;;4.50;;
4971;SDS011;2501;51.214;6.768;2022-10-31T15:29:00;12.83;;;4.50;;
4971;SDS011;2501;51.214;6.768;2022-10-31T15:31:30;13.68;;;4.57;;
4971;SDS011;2501;51.214;6.768;2022-10-31T15:34:00;20.65;;;8.20;;
4971;SDS011;2501;51.214;6.768;2022-10-31T15:36:32;17.45;;;7.10;;
4971;SDS011;2501;51.214;6.768;2022-10-31T15:39:01;15.80;;;5.93;;
4971;SDS011;2501;51.214;6.768;2022-10-31T15:41:33;11.38;;;4.05;;
4971;SDS011;2501;51.214;6.768;2022-10-31T15:44:10;8.50;;;4.30;;
4971;SDS011;2501;51.214;6.768;2022-10-31T15:46:42;12.23;;;4.43;;